Time;durP1;ratioP1;P1;durP2;ratioP2;P2;SDS_P1;SDS_P2;PMS_P1;PMS_P2;Temp;Humidity;BMP_temperature;BMP_pressure;BME280_temperature;BME280_humidity;BME280_pressure;Samples;Min_cycle;Max_cycle;Signal;HPM_P1;HPM_P2
2022/01/24 00:02:08;;;;;;;2.30;1.00;;;;;;;;;;5059088;28;20024;-46
2022/01/24 00:04:36;;;;;;;0.93;0.70;;;;;;;;;;5060400;28;20432;-49
2022/01/24 00:07:02;;;;;;;1.60;0.85;;;;;;;;;;5059954;28;20020;-51
2022/01/24 00:09:28;;;;;;;0.80;0.80;;;;;;;;;;5058335;28;20539;-47
2022/01/24 00:27:26;;;;;;;0.98;0.80;;;;;;;;;;5060985;28;20624;-47
2022/01/24 00:29:52;;;;;;;0.60;0.60;;;;;;;;;;5058920;28;20130;-48
2022/01/24 00:32:18;;;;;;;1.52;1.00;;;;;;;;;;5058901;28;20103;-47
2022/01/24 00:34:44;;;;;;;1.15;0.70;;;;;;;;;;5060966;28;20016;-47
2022/01/24 00:37:10;;;;;;;1.27;1.00;;;;;;;;;;5058013;28;20495;-51
2022/01/24 00:39:37;;;;;;;1.40;0.73;;;;;;;;;;5060094;28;20036;-47
2022/01/24 00:44:48;;;;;;;2.40;1.00;;;;;;;;;;5071233;28;20029;-48
2022/01/24 00:47:25;;;;;;;1.73;0.80;;;;;;;;;;5070666;28;20024;-47
2022/01/24 00:55:21;;;;;;;1.73;0.90;;;;;;;;;;5074201;28;20816;-46
2022/01/24 00:57:47;;;;;;;1.10;0.75;;;;;;;;;;5051378;28;20044;-47
2022/01/24 01:00:13;;;;;;;1.33;1.02;;;;;;;;;;5069115;28;20397;-47
2022/01/24 01:02:40;;;;;;;1.40;0.80;;;;;;;;;;5056808;28;20028;-47
2022/01/24 01:05:23;;;;;;;2.08;0.75;;;;;;;;;;5074061;28;20017;-48
2022/01/24 01:18:33;;;;;;;1.05;0.80;;;;;;;;;;5068155;28;20058;-48
2022/01/24 01:23:25;;;;;;;1.90;0.68;;;;;;;;;;5062328;28;20108;-47
2022/01/24 01:25:53;;;;;;;1.50;0.70;;;;;;;;;;5069672;28;20029;-48
2022/01/24 01:28:21;;;;;;;1.20;0.75;;;;;;;;;;5061756;28;20025;-47
2022/01/24 01:30:51;;;;;;;1.05;0.85;;;;;;;;;;5054223;28;20111;-47
2022/01/24 01:52:30;;;;;;;1.13;0.85;;;;;;;;;;5053169;28;20028;-62
2022/01/24 01:55:42;;;;;;;1.48;0.90;;;;;;;;;;5054966;28;20025;-47
2022/01/24 01:57:43;;;;;;;2.13;0.80;;;;;;;;;;5039173;28;20083;-47
2022/01/24 02:00:10;;;;;;;0.95;0.70;;;;;;;;;;5053037;28;20033;-47
2022/01/24 02:02:36;;;;;;;0.88;0.65;;;;;;;;;;5053870;28;20478;-49
2022/01/24 02:05:02;;;;;;;0.88;0.70;;;;;;;;;;5062475;28;20040;-62
2022/01/24 02:07:28;;;;;;;1.23;0.90;;;;;;;;;;5073351;28;20071;-47
2022/01/24 02:09:54;;;;;;;0.93;0.70;;;;;;;;;;5073213;28;20106;-47
2022/01/24 02:12:24;;;;;;;1.48;1.05;;;;;;;;;;5070710;28;20038;-47
2022/01/24 02:14:56;;;;;;;0.85;0.70;;;;;;;;;;5061296;28;20024;-47
2022/01/24 02:17:33;;;;;;;1.00;0.90;;;;;;;;;;5072639;28;20040;-46
2022/01/24 02:20:37;;;;;;;1.00;0.80;;;;;;;;;;5073542;28;20035;-47
2022/01/24 02:25:53;;;;;;;1.38;0.50;;;;;;;;;;5033063;28;20025;-52
2022/01/24 02:28:21;;;;;;;1.00;0.70;;;;;;;;;;5052698;28;20083;-46
2022/01/24 02:33:17;;;;;;;1.13;0.90;;;;;;;;;;5052383;28;20060;-50
2022/01/24 02:35:44;;;;;;;1.20;0.85;;;;;;;;;;5067982;28;20055;-49
2022/01/24 02:38:21;;;;;;;2.05;1.00;;;;;;;;;;5066908;28;20493;-47
2022/01/24 02:46:01;;;;;;;1.60;0.90;;;;;;;;;;5059855;28;20095;-46
2022/01/24 02:49:06;;;;;;;1.35;1.10;;;;;;;;;;5052125;28;20032;-51
2022/01/24 02:51:47;;;;;;;2.17;0.82;;;;;;;;;;5052631;28;20055;-47
2022/01/24 02:54:29;;;;;;;2.15;0.82;;;;;;;;;;5052077;28;20094;-47
2022/01/24 02:56:55;;;;;;;1.17;0.88;;;;;;;;;;5053674;28;20032;-46
2022/01/24 02:59:21;;;;;;;2.05;1.10;;;;;;;;;;5051909;28;20033;-46
2022/01/24 03:01:47;;;;;;;1.48;0.95;;;;;;;;;;5052358;28;20052;-48
2022/01/24 03:04:13;;;;;;;1.05;0.50;;;;;;;;;;5051797;28;20083;-48
2022/01/24 03:06:39;;;;;;;1.20;1.10;;;;;;;;;;5060078;28;20046;-47
2022/01/24 03:09:06;;;;;;;1.02;0.70;;;;;;;;;;5071533;28;20148;-61
2022/01/24 03:14:18;;;;;;;1.20;0.93;;;;;;;;;;5071596;28;20029;-48
2022/01/24 03:16:44;;;;;;;0.70;0.70;;;;;;;;;;5061208;28;20101;-47
2022/01/24 03:19:10;;;;;;;1.30;0.80;;;;;;;;;;5051473;28;20116;-47
2022/01/24 03:21:36;;;;;;;1.30;0.88;;;;;;;;;;5065414;28;20099;-47
2022/01/24 03:24:02;;;;;;;1.40;0.70;;;;;;;;;;5071282;28;20048;-53
2022/01/24 03:26:28;;;;;;;1.60;1.38;;;;;;;;;;5069040;28;20067;-48
2022/01/24 03:28:54;;;;;;;1.08;0.70;;;;;;;;;;5071801;28;20021;-48
2022/01/24 03:31:20;;;;;;;1.10;1.00;;;;;;;;;;5069379;28;20364;-55
2022/01/24 03:33:46;;;;;;;1.25;0.98;;;;;;;;;;5067954;28;20410;-47
2022/01/24 03:36:12;;;;;;;1.17;0.93;;;;;;;;;;5062524;28;20025;-47
2022/01/24 03:38:38;;;;;;;1.17;1.00;;;;;;;;;;5051823;28;20110;-46
2022/01/24 03:41:04;;;;;;;1.20;0.57;;;;;;;;;;5051508;28;20037;-60
2022/01/24 03:43:30;;;;;;;0.95;0.80;;;;;;;;;;5051500;28;20351;-48
2022/01/24 03:46:47;;;;;;;1.83;1.52;;;;;;;;;;5056973;28;20033;-47
2022/01/24 03:48:46;;;;;;;1.67;0.93;;;;;;;;;;5051089;28;20367;-46
2022/01/24 03:51:12;;;;;;;1.00;0.82;;;;;;;;;;5051319;28;20025;-47
2022/01/24 03:53:39;;;;;;;1.02;0.80;;;;;;;;;;5051706;28;20063;-47
2022/01/24 03:56:06;;;;;;;1.25;0.80;;;;;;;;;;5058269;28;20039;-60
2022/01/24 03:58:32;;;;;;;1.48;1.13;;;;;;;;;;5067515;28;20033;-49
2022/01/24 04:00:59;;;;;;;0.95;0.70;;;;;;;;;;5051619;28;20470;-47
2022/01/24 04:03:25;;;;;;;0.80;0.63;;;;;;;;;;5051314;28;20021;-47
2022/01/24 04:05:51;;;;;;;1.25;0.90;;;;;;;;;;5052230;28;20021;-47
2022/01/24 04:08:18;;;;;;;1.38;0.90;;;;;;;;;;5050169;28;20033;-48
2022/01/24 04:10:47;;;;;;;1.30;1.20;;;;;;;;;;5061478;28;20040;-50
2022/01/24 04:13:36;;;;;;;0.90;0.70;;;;;;;;;;5070896;28;20025;-47
2022/01/24 04:24:13;;;;;;;0.85;0.82;;;;;;;;;;5011018;28;20057;-54
2022/01/24 04:26:40;;;;;;;1.38;0.85;;;;;;;;;;5026880;28;20026;-50
2022/01/24 04:29:07;;;;;;;1.20;0.80;;;;;;;;;;5030616;28;20033;-60
2022/01/24 04:31:33;;;;;;;1.20;0.85;;;;;;;;;;5033385;28;20124;-52
2022/01/24 04:34:00;;;;;;;1.50;0.98;;;;;;;;;;5033242;28;20029;-48
2022/01/24 04:36:26;;;;;;;1.77;1.05;;;;;;;;;;5023573;28;20038;-49
2022/01/24 04:38:52;;;;;;;1.20;1.00;;;;;;;;;;5027581;28;20053;-50
2022/01/24 04:41:23;;;;;;;1.83;1.52;;;;;;;;;;5052157;28;20107;-47
2022/01/24 04:46:45;;;;;;;1.17;0.77;;;;;;;;;;5059678;28;20044;-47
2022/01/24 04:54:42;;;;;;;0.70;0.70;;;;;;;;;;5073719;28;20560;-48
2022/01/24 04:57:09;;;;;;;0.77;0.77;;;;;;;;;;5091275;28;20077;-60
2022/01/24 04:59:35;;;;;;;1.40;0.90;;;;;;;;;;5092881;28;20415;-47
2022/01/24 05:02:02;;;;;;;1.35;0.90;;;;;;;;;;5075098;28;20024;-50
2022/01/24 05:04:28;;;;;;;0.85;0.68;;;;;;;;;;5074163;28;20661;-48
2022/01/24 05:06:54;;;;;;;1.27;0.98;;;;;;;;;;5089341;28;20032;-46
2022/01/24 05:09:21;;;;;;;2.22;0.88;;;;;;;;;;5093116;28;20031;-47
2022/01/24 05:12:32;;;;;;;1.30;0.88;;;;;;;;;;5094963;28;20035;-47
2022/01/24 05:26:08;;;;;;;1.60;0.93;;;;;;;;;;5057381;28;20494;-60
2022/01/24 05:28:35;;;;;;;0.85;0.80;;;;;;;;;;5074141;28;20028;-48
2022/01/24 05:31:02;;;;;;;0.93;0.80;;;;;;;;;;5084252;28;20111;-49
2022/01/24 05:33:28;;;;;;;1.40;1.00;;;;;;;;;;5087806;28;20035;-47
2022/01/24 05:35:54;;;;;;;1.33;1.15;;;;;;;;;;5079902;28;20020;-47
2022/01/24 05:38:22;;;;;;;1.88;1.20;;;;;;;;;;5081885;28;20550;-49
2022/01/24 05:40:48;;;;;;;1.80;1.08;;;;;;;;;;5072909;28;20035;-49
2022/01/24 05:43:14;;;;;;;2.65;1.60;;;;;;;;;;5073199;28;20381;-48
2022/01/24 05:45:43;;;;;;;1.55;1.10;;;;;;;;;;5067697;28;20021;-48
2022/01/24 05:48:09;;;;;;;1.48;0.80;;;;;;;;;;5053892;28;20055;-59
2022/01/24 05:50:35;;;;;;;1.33;1.05;;;;;;;;;;5054074;28;20029;-51
2022/01/24 05:53:01;;;;;;;1.45;0.90;;;;;;;;;;5053933;28;20029;-49
2022/01/24 05:55:28;;;;;;;1.42;0.90;;;;;;;;;;5057052;28;20288;-47
2022/01/24 05:57:54;;;;;;;1.67;1.25;;;;;;;;;;5073869;28;20377;-47
2022/01/24 06:00:20;;;;;;;1.33;0.90;;;;;;;;;;5067585;28;20544;-49
2022/01/24 06:02:46;;;;;;;1.85;0.93;;;;;;;;;;5073605;28;20432;-48
2022/01/24 06:05:13;;;;;;;0.93;0.80;;;;;;;;;;5072146;28;20016;-52
2022/01/24 06:07:39;;;;;;;1.45;0.70;;;;;;;;;;5067630;28;20036;-47
2022/01/24 06:10:05;;;;;;;0.95;0.80;;;;;;;;;;5054149;28;20355;-48
2022/01/24 06:12:31;;;;;;;1.35;1.13;;;;;;;;;;5063063;28;20381;-54
2022/01/24 06:14:57;;;;;;;1.33;1.00;;;;;;;;;;5059455;28;20036;-48
2022/01/24 06:17:23;;;;;;;1.20;1.05;;;;;;;;;;5063477;28;20109;-48
2022/01/24 06:19:50;;;;;;;1.20;1.00;;;;;;;;;;5061989;28;20468;-46
2022/01/24 06:22:16;;;;;;;1.65;1.13;;;;;;;;;;5063407;28;20100;-45
2022/01/24 06:24:42;;;;;;;1.20;0.93;;;;;;;;;;5062423;28;20016;-45
2022/01/24 06:27:08;;;;;;;1.35;1.02;;;;;;;;;;5060885;28;20032;-57
2022/01/24 06:29:34;;;;;;;1.10;0.90;;;;;;;;;;5062041;28;20104;-48
2022/01/24 06:32:00;;;;;;;1.02;0.75;;;;;;;;;;5061241;28;20099;-50
2022/01/24 06:34:26;;;;;;;0.90;0.75;;;;;;;;;;5062345;28;20021;-46
2022/01/24 06:36:52;;;;;;;1.08;0.93;;;;;;;;;;5060186;28;20021;-46
2022/01/24 06:39:18;;;;;;;1.27;0.90;;;;;;;;;;5060424;28;20110;-46
2022/01/24 06:41:51;;;;;;;1.15;0.80;;;;;;;;;;5063000;28;20045;-46
2022/01/24 06:44:17;;;;;;;1.65;1.05;;;;;;;;;;5061177;28;20474;-46
2022/01/24 06:46:44;;;;;;;1.20;0.82;;;;;;;;;;5059588;28;20099;-47
2022/01/24 06:49:10;;;;;;;1.10;1.00;;;;;;;;;;5062094;28;20032;-61
2022/01/24 06:51:36;;;;;;;2.10;1.02;;;;;;;;;;5061253;28;20024;-45
2022/01/24 06:54:02;;;;;;;0.98;0.88;;;;;;;;;;5062620;28;20112;-45
2022/01/24 06:56:28;;;;;;;3.88;1.08;;;;;;;;;;5059834;28;20261;-46
2022/01/24 06:58:54;;;;;;;3.33;0.80;;;;;;;;;;5061991;28;20031;-46
2022/01/24 07:01:20;;;;;;;1.00;0.90;;;;;;;;;;5064879;28;20028;-45
2022/01/24 07:03:46;;;;;;;1.65;1.02;;;;;;;;;;5061140;28;20029;-45
2022/01/24 07:06:13;;;;;;;1.02;0.80;;;;;;;;;;5061873;28;20020;-59
2022/01/24 07:08:39;;;;;;;1.48;1.00;;;;;;;;;;5058745;28;20031;-45
2022/01/24 07:11:06;;;;;;;1.02;0.90;;;;;;;;;;5060452;28;20108;-45
2022/01/24 07:13:32;;;;;;;1.52;1.08;;;;;;;;;;5056344;28;20023;-45
2022/01/24 07:16:02;;;;;;;1.38;1.00;;;;;;;;;;5058738;28;20025;-45
2022/01/24 07:20:59;;;;;;;1.80;0.98;;;;;;;;;;5061393;28;20039;-45
2022/01/24 07:23:25;;;;;;;1.63;1.33;;;;;;;;;;5061343;28;20052;-45
2022/01/24 07:25:52;;;;;;;1.45;1.17;;;;;;;;;;5060351;28;20090;-46
2022/01/24 07:28:18;;;;;;;1.20;1.10;;;;;;;;;;5060204;28;20039;-45
2022/01/24 07:30:45;;;;;;;2.17;1.10;;;;;;;;;;5059196;28;20051;-45
2022/01/24 07:33:11;;;;;;;1.45;1.02;;;;;;;;;;5052024;28;20052;-49
2022/01/24 07:35:37;;;;;;;1.02;0.80;;;;;;;;;;5056956;28;20049;-46
2022/01/24 07:38:05;;;;;;;1.48;0.82;;;;;;;;;;5060727;28;20036;-46
2022/01/24 07:40:37;;;;;;;1.50;0.80;;;;;;;;;;5057672;28;20024;-50
2022/01/24 07:43:13;;;;;;;1.90;1.02;;;;;;;;;;5056039;28;20090;-45
2022/01/24 07:45:40;;;;;;;2.33;1.10;;;;;;;;;;5056825;28;20021;-53
2022/01/24 07:48:06;;;;;;;2.35;1.50;;;;;;;;;;5053294;28;20585;-47
2022/01/24 07:50:35;;;;;;;4.78;1.20;;;;;;;;;;5060941;28;20024;-49
2022/01/24 07:53:01;;;;;;;1.80;1.20;;;;;;;;;;5060623;28;20052;-46
2022/01/24 07:55:27;;;;;;;2.72;1.17;;;;;;;;;;5052169;28;20031;-46
2022/01/24 07:57:53;;;;;;;4.53;1.55;;;;;;;;;;5052114;28;20118;-45
2022/01/24 08:00:20;;;;;;;3.03;1.50;;;;;;;;;;5050752;28;20453;-49
2022/01/24 08:02:46;;;;;;;3.28;1.13;;;;;;;;;;5055587;28;20359;-46
2022/01/24 08:05:12;;;;;;;3.05;1.40;;;;;;;;;;5057721;28;20369;-57
2022/01/24 08:07:38;;;;;;;6.65;1.42;;;;;;;;;;5050603;28;20017;-46
2022/01/24 08:10:05;;;;;;;2.72;1.30;;;;;;;;;;5054330;28;20048;-47
2022/01/24 08:12:31;;;;;;;1.60;1.10;;;;;;;;;;5057902;28;20275;-45
2022/01/24 08:15:00;;;;;;;3.03;1.58;;;;;;;;;;5059570;28;20025;-46
2022/01/24 08:17:26;;;;;;;4.32;1.40;;;;;;;;;;5053692;28;20033;-47
2022/01/24 08:19:52;;;;;;;4.90;1.75;;;;;;;;;;5053518;28;20484;-45
2022/01/24 08:22:18;;;;;;;5.40;1.63;;;;;;;;;;5058589;28;20033;-48
2022/01/24 08:24:45;;;;;;;3.70;1.85;;;;;;;;;;5059109;28;20502;-45
2022/01/24 08:27:11;;;;;;;3.45;1.70;;;;;;;;;;5040613;28;20108;-45
2022/01/24 08:29:37;;;;;;;8.38;1.90;;;;;;;;;;5054366;28;20029;-45
2022/01/24 08:32:03;;;;;;;4.38;1.75;;;;;;;;;;5055815;28;20025;-49
2022/01/24 08:34:29;;;;;;;4.47;1.30;;;;;;;;;;5058507;28;20370;-45
2022/01/24 08:36:55;;;;;;;3.95;1.50;;;;;;;;;;5058022;28;20424;-45
2022/01/24 08:39:21;;;;;;;2.90;1.40;;;;;;;;;;5056600;28;20048;-45
2022/01/24 08:42:35;;;;;;;5.90;1.73;;;;;;;;;;5057859;28;20108;-45
2022/01/24 08:47:22;;;;;;;3.58;1.52;;;;;;;;;;5059919;28;20474;-45
2022/01/24 08:49:49;;;;;;;5.70;1.92;;;;;;;;;;5057714;28;20083;-47
2022/01/24 08:52:15;;;;;;;4.93;2.22;;;;;;;;;;5049922;28;20103;-48
2022/01/24 08:54:41;;;;;;;4.20;2.20;;;;;;;;;;5061320;28;20449;-45
2022/01/24 08:57:07;;;;;;;4.28;1.88;;;;;;;;;;5055616;28;20033;-51
2022/01/24 08:59:34;;;;;;;4.72;2.10;;;;;;;;;;5053013;28;20053;-55
2022/01/24 09:02:00;;;;;;;5.32;2.10;;;;;;;;;;5055729;28;20026;-48
2022/01/24 09:04:26;;;;;;;6.28;1.90;;;;;;;;;;5057045;28;20025;-63
2022/01/24 09:06:52;;;;;;;8.65;1.85;;;;;;;;;;5057344;28;20717;-55
2022/01/24 09:09:20;;;;;;;4.13;1.92;;;;;;;;;;5058024;28;20032;-48
2022/01/24 09:11:46;;;;;;;7.28;2.13;;;;;;;;;;5056407;28;20223;-53
2022/01/24 09:14:12;;;;;;;4.80;1.52;;;;;;;;;;5055290;28;20358;-50
2022/01/24 09:16:38;;;;;;;4.00;2.55;;;;;;;;;;5063815;28;20060;-47
2022/01/24 09:19:05;;;;;;;8.75;2.00;;;;;;;;;;5061880;28;20023;-50
2022/01/24 09:21:31;;;;;;;4.20;1.60;;;;;;;;;;5059365;28;20032;-48
2022/01/24 09:23:57;;;;;;;9.80;2.55;;;;;;;;;;5063128;28;20067;-54
2022/01/24 09:26:23;;;;;;;5.85;2.13;;;;;;;;;;5060739;28;20355;-48
2022/01/24 09:28:49;;;;;;;3.33;1.50;;;;;;;;;;5063531;28;20441;-47
2022/01/24 09:31:15;;;;;;;4.93;1.88;;;;;;;;;;5060526;28;20029;-48
2022/01/24 09:33:41;;;;;;;5.05;2.10;;;;;;;;;;5067520;28;20013;-53
2022/01/24 09:36:07;;;;;;;8.55;2.22;;;;;;;;;;5061066;28;20029;-50
2022/01/24 09:38:34;;;;;;;8.52;2.20;;;;;;;;;;5063377;28;20281;-51
2022/01/24 09:41:04;;;;;;;7.47;2.17;;;;;;;;;;5063520;28;20115;-49
2022/01/24 09:43:31;;;;;;;6.78;2.03;;;;;;;;;;5058572;28;20365;-47
2022/01/24 09:45:58;;;;;;;3.92;1.75;;;;;;;;;;5070578;28;20016;-47
2022/01/24 09:48:24;;;;;;;2.72;1.70;;;;;;;;;;5060987;28;20378;-53
2022/01/24 09:50:52;;;;;;;4.93;2.38;;;;;;;;;;5057313;28;20039;-51
2022/01/24 09:53:19;;;;;;;4.13;2.10;;;;;;;;;;5056230;28;20029;-51
2022/01/24 09:55:45;;;;;;;4.55;2.13;;;;;;;;;;5058794;28;20025;-47
2022/01/24 09:58:11;;;;;;;8.68;2.13;;;;;;;;;;5058851;28;20052;-52
2022/01/24 10:00:37;;;;;;;3.85;1.67;;;;;;;;;;5065228;28;20039;-53
2022/01/24 10:03:03;;;;;;;6.32;2.53;;;;;;;;;;5056491;28;20347;-46
2022/01/24 10:05:33;;;;;;;4.55;1.73;;;;;;;;;;5066969;28;20031;-45
2022/01/24 10:08:00;;;;;;;4.90;1.95;;;;;;;;;;5058091;28;20104;-46
2022/01/24 10:10:27;;;;;;;9.77;2.45;;;;;;;;;;5064941;28;20115;-48
2022/01/24 10:18:08;;;;;;;5.75;2.05;;;;;;;;;;5057159;28;20556;-54
2022/01/24 10:20:35;;;;;;;10.93;1.95;;;;;;;;;;5066702;28;20068;-50
2022/01/24 10:23:24;;;;;;;3.25;1.65;;;;;;;;;;5056198;28;20083;-48
2022/01/24 10:26:02;;;;;;;7.47;2.20;;;;;;;;;;5063869;28;20481;-48
2022/01/24 10:28:33;;;;;;;5.68;2.22;;;;;;;;;;5057830;28;20453;-46
2022/01/24 10:31:10;;;;;;;8.32;2.35;;;;;;;;;;5068514;28;20455;-47
2022/01/24 10:34:23;;;;;;;6.20;2.33;;;;;;;;;;5062206;28;20108;-48
2022/01/24 10:36:56;;;;;;;7.18;2.28;;;;;;;;;;4965701;28;20066;-52
2022/01/24 10:39:44;;;;;;;8.10;3.13;;;;;;;;;;5001492;28;20241;-47
2022/01/24 10:42:29;;;;;;;5.15;1.90;;;;;;;;;;4997426;28;20538;-56
2022/01/24 10:44:56;;;;;;;6.93;2.70;;;;;;;;;;4997044;28;20034;-52
2022/01/24 10:47:24;;;;;;;6.65;2.83;;;;;;;;;;4994307;28;20109;-48
2022/01/24 10:49:50;;;;;;;4.43;2.17;;;;;;;;;;4992742;28;20026;-51
2022/01/24 10:52:19;;;;;;;7.75;2.67;;;;;;;;;;4993883;28;20066;-59
2022/01/24 10:54:45;;;;;;;9.05;1.83;;;;;;;;;;5004425;28;20034;-49
2022/01/24 10:57:20;;;;;;;6.70;2.03;;;;;;;;;;4999132;28;20026;-58
2022/01/24 10:59:46;;;;;;;4.28;2.05;;;;;;;;;;5000269;28;20049;-49
2022/01/24 11:02:15;;;;;;;6.38;2.10;;;;;;;;;;5008463;28;20108;-49
2022/01/24 11:04:41;;;;;;;4.65;1.85;;;;;;;;;;4999064;28;20173;-50
2022/01/24 11:07:07;;;;;;;9.88;2.97;;;;;;;;;;5029528;28;20119;-52
2022/01/24 11:09:34;;;;;;;28.25;2.85;;;;;;;;;;5076262;28;20024;-54
2022/01/24 11:12:10;;;;;;;5.75;2.85;;;;;;;;;;5082646;28;20032;-51
2022/01/24 11:14:37;;;;;;;7.88;2.13;;;;;;;;;;5079439;28;20499;-53
2022/01/24 11:17:03;;;;;;;4.43;1.60;;;;;;;;;;5083483;28;20028;-51
2022/01/24 11:19:36;;;;;;;3.17;1.88;;;;;;;;;;5079903;28;20036;-55
2022/01/24 11:22:05;;;;;;;5.40;2.08;;;;;;;;;;5080144;28;20023;-56
2022/01/24 11:24:45;;;;;;;3.45;1.88;;;;;;;;;;5081239;28;20036;-53
2022/01/24 11:27:11;;;;;;;2.92;1.83;;;;;;;;;;5080742;28;20032;-50
2022/01/24 11:29:38;;;;;;;4.70;2.22;;;;;;;;;;5073734;28;20024;-54
2022/01/24 11:32:04;;;;;;;5.80;1.77;;;;;;;;;;5080428;28;20048;-55
2022/01/24 11:34:38;;;;;;;7.25;2.25;;;;;;;;;;5085418;28;20111;-49
2022/01/24 11:37:05;;;;;;;3.60;1.80;;;;;;;;;;5074096;28;20032;-53
2022/01/24 11:39:31;;;;;;;6.05;2.22;;;;;;;;;;5054065;28;20032;-54
2022/01/24 11:41:58;;;;;;;9.73;1.58;;;;;;;;;;5057233;28;20529;-54
2022/01/24 11:44:26;;;;;;;20.10;2.17;;;;;;;;;;5056689;28;20534;-51
2022/01/24 11:46:58;;;;;;;4.65;1.83;;;;;;;;;;5060438;28;20082;-50
2022/01/24 11:49:36;;;;;;;5.67;1.73;;;;;;;;;;5065863;28;20021;-53
2022/01/24 11:52:04;;;;;;;4.32;1.35;;;;;;;;;;5059993;28;20016;-55
2022/01/24 11:54:44;;;;;;;5.00;1.52;;;;;;;;;;5057247;28;20047;-48
2022/01/24 11:57:19;;;;;;;6.53;1.95;;;;;;;;;;5037850;28;20029;-54
2022/01/24 11:59:46;;;;;;;3.15;1.65;;;;;;;;;;5064938;28;20040;-53
2022/01/24 12:02:15;;;;;;;5.00;2.00;;;;;;;;;;5061303;28;20020;-52
2022/01/24 12:04:50;;;;;;;4.97;1.73;;;;;;;;;;5057002;28;20066;-51
2022/01/24 12:07:25;;;;;;;4.30;1.60;;;;;;;;;;5056492;28;20114;-51
2022/01/24 12:09:52;;;;;;;5.43;2.03;;;;;;;;;;5063885;28;20029;-50
2022/01/24 12:12:37;;;;;;;8.73;1.38;;;;;;;;;;5057234;28;20079;-63
2022/01/24 12:15:03;;;;;;;3.25;1.30;;;;;;;;;;5067674;28;20108;-56
2022/01/24 12:17:46;;;;;;;4.90;1.80;;;;;;;;;;5054347;28;20021;-59
2022/01/24 12:20:47;;;;;;;7.03;2.10;;;;;;;;;;5060758;28;20025;-55
2022/01/24 12:23:16;;;;;;;6.30;1.63;;;;;;;;;;4968654;28;20500;-58
2022/01/24 12:26:05;;;;;;;3.75;1.55;;;;;;;;;;5045630;28;20279;-58
2022/01/24 12:28:44;;;;;;;1.77;1.17;;;;;;;;;;5063253;28;20036;-58
2022/01/24 12:31:30;;;;;;;3.97;1.50;;;;;;;;;;5054545;28;20025;-59
2022/01/24 12:33:59;;;;;;;2.65;1.33;;;;;;;;;;5035592;28;20072;-59
2022/01/24 12:36:46;;;;;;;3.30;1.15;;;;;;;;;;5049805;28;20078;-56
2022/01/24 12:39:15;;;;;;;1.85;1.20;;;;;;;;;;5051428;28;20053;-58
2022/01/24 12:41:47;;;;;;;3.17;1.48;;;;;;;;;;5053931;28;20040;-58
2022/01/24 12:47:00;;;;;;;2.58;1.60;;;;;;;;;;5034639;28;20040;-59
2022/01/24 12:49:31;;;;;;;5.45;1.20;;;;;;;;;;5066119;28;20033;-58
2022/01/24 12:52:17;;;;;;;3.50;1.50;;;;;;;;;;5061023;28;20425;-57
2022/01/24 12:54:51;;;;;;;3.97;1.17;;;;;;;;;;5061165;28;20025;-58
2022/01/24 12:57:19;;;;;;;1.83;1.10;;;;;;;;;;5060098;28;20035;-63
2022/01/24 12:59:56;;;;;;;1.52;1.10;;;;;;;;;;5060096;28;20021;-60
2022/01/24 13:02:24;;;;;;;1.83;1.10;;;;;;;;;;5061981;28;20055;-56
2022/01/24 13:04:52;;;;;;;2.47;1.45;;;;;;;;;;5061163;28;20039;-56
2022/01/24 13:07:18;;;;;;;2.40;1.30;;;;;;;;;;5063697;28;20040;-55
2022/01/24 13:09:44;;;;;;;2.67;1.10;;;;;;;;;;5062827;28;20035;-58
2022/01/24 13:12:10;;;;;;;2.00;1.00;;;;;;;;;;5060742;28;20099;-56
2022/01/24 13:14:54;;;;;;;3.78;1.25;;;;;;;;;;5060740;28;20021;-54
2022/01/24 13:22:55;;;;;;;;;;;;;;;;;;5055133;28;20037;-58
2022/01/24 13:25:26;;;;;;;2.25;0.85;;;;;;;;;;5055157;28;19987;-58
2022/01/24 13:27:52;;;;;;;2.92;1.25;;;;;;;;;;5060826;28;20108;-56
2022/01/24 13:30:24;;;;;;;6.22;0.98;;;;;;;;;;5062361;28;20103;-60
2022/01/24 13:32:51;;;;;;;2.72;1.38;;;;;;;;;;5061373;28;20009;-54
2022/01/24 13:35:17;;;;;;;4.53;1.20;;;;;;;;;;5065786;28;20052;-60
2022/01/24 13:37:43;;;;;;;3.38;0.93;;;;;;;;;;5061771;28;20048;-53
2022/01/24 13:40:10;;;;;;;2.22;1.02;;;;;;;;;;5062121;28;20517;-49
2022/01/24 13:42:36;;;;;;;2.65;1.58;;;;;;;;;;5060268;28;20036;-52
2022/01/24 13:45:03;;;;;;;4.72;1.67;;;;;;;;;;5061261;28;20047;-50
2022/01/24 13:47:29;;;;;;;2.22;0.95;;;;;;;;;;5060085;28;20462;-47
2022/01/24 13:49:55;;;;;;;2.58;1.20;;;;;;;;;;5060554;28;20474;-51
2022/01/24 13:52:24;;;;;;;4.50;1.45;;;;;;;;;;5058460;28;20392;-56
2022/01/24 13:54:50;;;;;;;1.42;0.82;;;;;;;;;;5062588;28;20016;-53
2022/01/24 13:57:17;;;;;;;1.17;0.80;;;;;;;;;;5062752;28;20021;-55
2022/01/24 13:59:43;;;;;;;2.55;1.40;;;;;;;;;;5060667;28;20021;-52
2022/01/24 14:02:15;;;;;;;1.30;0.80;;;;;;;;;;5043056;28;20155;-47
2022/01/24 14:04:53;;;;;;;1.73;0.80;;;;;;;;;;5060138;28;20043;-49
2022/01/24 14:07:26;;;;;;;4.07;1.20;;;;;;;;;;5060080;28;20013;-59
2022/01/24 14:09:57;;;;;;;3.00;1.00;;;;;;;;;;5059420;28;20021;-49
2022/01/24 14:12:26;;;;;;;1.60;0.67;;;;;;;;;;5062228;28;20037;-48
2022/01/24 14:15:03;;;;;;;2.40;1.00;;;;;;;;;;5063841;28;20036;-47
2022/01/24 14:20:01;;;;;;;1.65;1.30;;;;;;;;;;5063544;28;20072;-45
2022/01/24 14:22:37;;;;;;;2.15;0.90;;;;;;;;;;5055210;28;20028;-52
2022/01/24 14:25:04;;;;;;;2.42;0.95;;;;;;;;;;5059578;28;20044;-51
2022/01/24 14:27:42;;;;;;;3.55;1.17;;;;;;;;;;5056166;28;20032;-54
2022/01/24 14:30:20;;;;;;;3.08;1.70;;;;;;;;;;5060100;28;20078;-48
2022/01/24 14:33:03;;;;;;;2.70;1.23;;;;;;;;;;5058759;28;20017;-51
2022/01/24 14:35:32;;;;;;;1.40;0.80;;;;;;;;;;5062687;28;20028;-47
2022/01/24 14:37:59;;;;;;;2.97;0.90;;;;;;;;;;5058979;28;20044;-48
2022/01/24 14:40:51;;;;;;;3.05;1.48;;;;;;;;;;5078707;28;20547;-48
2022/01/24 14:46:06;;;;;;;2.53;1.05;;;;;;;;;;5080913;28;20081;-58
2022/01/24 14:48:41;;;;;;;3.70;1.10;;;;;;;;;;5077955;28;20051;-51
2022/01/24 14:51:07;;;;;;;2.83;1.00;;;;;;;;;;5080734;28;20021;-50
2022/01/24 14:53:34;;;;;;;3.20;1.65;;;;;;;;;;5081386;28;20047;-48
2022/01/24 14:56:00;;;;;;;5.13;0.80;;;;;;;;;;5079466;28;20020;-48
2022/01/24 14:58:26;;;;;;;7.60;1.27;;;;;;;;;;5076401;28;20032;-46
2022/01/24 15:00:52;;;;;;;5.32;1.40;;;;;;;;;;5074540;28;20032;-47
2022/01/24 15:03:18;;;;;;;1.30;0.70;;;;;;;;;;5089009;28;20047;-61
2022/01/24 15:05:45;;;;;;;4.65;1.13;;;;;;;;;;5087731;28;20480;-53
2022/01/24 15:08:11;;;;;;;3.42;0.93;;;;;;;;;;5091770;28;20430;-51
2022/01/24 15:10:37;;;;;;;2.65;1.10;;;;;;;;;;5084490;28;20808;-48
2022/01/24 15:13:06;;;;;;;2.95;1.23;;;;;;;;;;5075284;28;20025;-47
2022/01/24 15:15:36;;;;;;;3.45;1.02;;;;;;;;;;5082992;28;20027;-49
2022/01/24 15:26:04;;;;;;;4.78;1.10;;;;;;;;;;5077343;28;20436;-58
2022/01/24 15:28:31;;;;;;;4.00;0.85;;;;;;;;;;5074037;28;20029;-50
2022/01/24 15:30:57;;;;;;;5.43;1.00;;;;;;;;;;5075164;28;20099;-52
2022/01/24 15:33:23;;;;;;;5.93;0.90;;;;;;;;;;5085022;28;20020;-60
2022/01/24 15:35:50;;;;;;;3.08;1.17;;;;;;;;;;5083109;28;20020;-57
2022/01/24 15:38:16;;;;;;;4.70;0.88;;;;;;;;;;5066277;28;20053;-54
2022/01/24 15:40:43;;;;;;;1.55;0.95;;;;;;;;;;5058953;28;20485;-50
2022/01/24 15:45:56;;;;;;;1.35;0.70;;;;;;;;;;5058431;28;20727;-54
2022/01/24 15:48:22;;;;;;;3.90;1.30;;;;;;;;;;5056396;28;20029;-59
2022/01/24 15:50:48;;;;;;;4.70;0.80;;;;;;;;;;5060115;28;20032;-50
2022/01/24 15:53:14;;;;;;;2.05;0.80;;;;;;;;;;5055894;28;20029;-53
2022/01/24 15:55:50;;;;;;;1.27;0.90;;;;;;;;;;5060278;28;20096;-52
2022/01/24 15:58:16;;;;;;;3.63;0.90;;;;;;;;;;5061179;28;20087;-51
2022/01/24 16:00:42;;;;;;;3.70;0.70;;;;;;;;;;5059746;28;20024;-51
2022/01/24 16:03:10;;;;;;;4.85;0.90;;;;;;;;;;5064595;28;20029;-52
2022/01/24 16:05:38;;;;;;;2.78;1.02;;;;;;;;;;5054094;28;20036;-53
2022/01/24 16:08:05;;;;;;;2.13;1.02;;;;;;;;;;5055199;28;20481;-53
2022/01/24 16:10:33;;;;;;;4.20;0.88;;;;;;;;;;5057408;28;20091;-50
2022/01/24 16:13:01;;;;;;;1.05;0.82;;;;;;;;;;5057422;28;20039;-52
2022/01/24 16:15:27;;;;;;;3.97;0.70;;;;;;;;;;5061602;28;20017;-51
2022/01/24 16:17:54;;;;;;;7.30;0.93;;;;;;;;;;5047339;28;20024;-56
2022/01/24 16:25:39;;;;;;;1.50;1.00;;;;;;;;;;5060043;28;20107;-63
2022/01/24 16:28:11;;;;;;;1.33;1.00;;;;;;;;;;5062952;28;20060;-54
2022/01/24 16:30:39;;;;;;;2.85;1.00;;;;;;;;;;5064024;28;20041;-49
2022/01/24 16:33:05;;;;;;;2.67;0.90;;;;;;;;;;5069731;28;20024;-51
2022/01/24 16:35:31;;;;;;;5.57;1.08;;;;;;;;;;5065306;28;20530;-52
2022/01/24 16:37:58;;;;;;;2.08;0.65;;;;;;;;;;5064543;28;20053;-51
2022/01/24 16:40:30;;;;;;;2.72;1.10;;;;;;;;;;5066597;28;20115;-57
2022/01/24 16:48:28;;;;;;;3.05;1.40;;;;;;;;;;5055673;28;20386;-53
2022/01/24 16:50:54;;;;;;;2.00;0.77;;;;;;;;;;5061449;28;20029;-59
2022/01/24 16:53:21;;;;;;;5.20;1.00;;;;;;;;;;5070856;28;20029;-57
2022/01/24 16:55:48;;;;;;;7.93;1.58;;;;;;;;;;5067009;28;20048;-59
2022/01/24 16:58:14;;;;;;;7.15;1.10;;;;;;;;;;5057490;28;20032;-58
2022/01/24 17:00:41;;;;;;;4.00;0.90;;;;;;;;;;5067937;28;20028;-59
2022/01/24 17:03:07;;;;;;;1.98;0.88;;;;;;;;;;5069667;28;20521;-59
2022/01/24 17:05:38;;;;;;;5.50;1.45;;;;;;;;;;5062374;28;20033;-58
2022/01/24 17:08:04;;;;;;;1.80;0.90;;;;;;;;;;5064085;28;20063;-58
2022/01/24 17:10:30;;;;;;;3.78;0.82;;;;;;;;;;5060541;28;20516;-58
2022/01/24 17:13:00;;;;;;;4.95;1.48;;;;;;;;;;5061301;28;20025;-56
2022/01/24 17:15:26;;;;;;;9.75;1.77;;;;;;;;;;5056793;28;20523;-60
2022/01/24 17:17:53;;;;;;;6.07;1.35;;;;;;;;;;5065949;28;20032;-59